createdAt,value
2022-10-26T00:00:30.154Z,8.10
2022-10-26T00:03:18.589Z,8.30
2022-10-26T00:05:46.190Z,8.30
2022-10-26T00:08:13.713Z,8.00
2022-10-26T00:10:41.780Z,7.70
2022-10-26T00:13:11.382Z,7.30
2022-10-26T00:15:43.037Z,8.10
2022-10-26T00:18:10.632Z,6.90
2022-10-26T00:20:38.387Z,6.60
2022-10-26T00:23:06.230Z,6.80
2022-10-26T00:25:34.267Z,7.10
2022-10-26T00:28:01.855Z,6.80
2022-10-26T00:30:29.709Z,6.60
2022-10-26T00:32:57.486Z,6.70
2022-10-26T00:35:41.356Z,6.90
2022-10-26T00:38:13.681Z,6.30
2022-10-26T00:40:41.503Z,5.80
2022-10-26T00:43:17.005Z,6.40
2022-10-26T00:45:45.899Z,6.10
2022-10-26T00:48:17.146Z,6.00
2022-10-26T00:50:47.057Z,6.30
2022-10-26T00:53:15.852Z,5.70
2022-10-26T00:55:47.196Z,5.20
2022-10-26T00:58:15.981Z,5.10
2022-10-26T01:00:43.874Z,5.40
2022-10-26T01:03:11.677Z,5.00
2022-10-26T01:05:42.449Z,5.80
2022-10-26T01:08:10.621Z,5.20
2022-10-26T01:10:38.979Z,5.70
2022-10-26T01:13:06.866Z,5.60
2022-10-26T01:15:42.005Z,5.80
2022-10-26T01:18:16.375Z,6.20
2022-10-26T01:20:50.226Z,6.30
2022-10-26T01:23:17.885Z,6.00
2022-10-26T01:25:45.706Z,6.00
2022-10-26T01:28:20.211Z,6.80
2022-10-26T01:30:49.037Z,6.40
2022-10-26T01:33:19.801Z,5.80
2022-10-26T01:35:58.724Z,5.80
2022-10-26T01:38:31.285Z,5.90
2022-10-26T01:41:15.752Z,6.00
2022-10-26T01:43:46.178Z,5.90
2022-10-26T01:46:14.787Z,6.40
2022-10-26T01:48:44.571Z,6.50
2022-10-26T01:51:13.263Z,5.70
2022-10-26T01:53:47.270Z,6.00
2022-10-26T01:56:26.059Z,5.80
2022-10-26T01:58:53.751Z,6.20
2022-10-26T02:01:42.565Z,6.40
2022-10-26T02:04:27.583Z,5.30
2022-10-26T02:07:05.555Z,5.90
2022-10-26T02:09:45.733Z,6.10
2022-10-26T02:12:23.120Z,5.60
2022-10-26T02:14:55.040Z,6.10
2022-10-26T02:17:31.348Z,5.70
2022-10-26T02:20:04.438Z,5.90
2022-10-26T02:22:34.791Z,5.60
2022-10-26T02:25:05.835Z,7.90
2022-10-26T02:27:35.300Z,7.10
2022-10-26T02:30:04.197Z,7.10
2022-10-26T02:32:33.912Z,7.40
2022-10-26T02:35:03.001Z,8.30
2022-10-26T02:37:32.096Z,8.10
2022-10-26T02:40:02.379Z,8.80
2022-10-26T02:42:31.005Z,7.20
2022-10-26T02:45:03.174Z,6.60
2022-10-26T02:47:31.136Z,8.90
2022-10-26T02:49:58.900Z,7.50
2022-10-26T02:52:46.368Z,8.60
2022-10-26T02:55:37.539Z,6.50
2022-10-26T02:58:08.383Z,7.60
2022-10-26T03:00:36.345Z,8.50
2022-10-26T03:03:04.617Z,7.70
2022-10-26T03:05:33.100Z,10.10
2022-10-26T03:08:01.172Z,8.60
2022-10-26T03:10:29.240Z,9.50
2022-10-26T03:12:57.924Z,8.60
2022-10-26T03:15:25.646Z,8.60
2022-10-26T03:17:53.254Z,9.20
2022-10-26T03:20:20.850Z,11.40
2022-10-26T03:22:48.878Z,12.80
2022-10-26T03:25:16.960Z,11.90
2022-10-26T03:27:44.712Z,15.00
2022-10-26T03:30:12.395Z,30.00
2022-10-26T03:32:40.137Z,28.30
2022-10-26T03:35:08.767Z,28.10
2022-10-26T03:37:36.789Z,24.20
2022-10-26T03:40:04.627Z,22.00
2022-10-26T03:42:39.007Z,22.20
2022-10-26T03:45:07.256Z,21.10
2022-10-26T03:47:35.288Z,20.00
2022-10-26T03:50:03.112Z,17.60
2022-10-26T03:52:30.929Z,16.70
2022-10-26T03:54:58.570Z,11.00
2022-10-26T03:57:26.688Z,8.30
2022-10-26T03:59:54.447Z,10.80
2022-10-26T04:02:22.110Z,16.80
2022-10-26T04:04:50.075Z,12.40
2022-10-26T04:07:17.917Z,10.60
2022-10-26T04:09:46.017Z,11.50
2022-10-26T04:12:13.775Z,9.90
2022-10-26T04:14:41.969Z,10.60
2022-10-26T04:17:10.236Z,13.80
2022-10-26T04:19:37.884Z,11.60
2022-10-26T04:22:05.654Z,11.60
2022-10-26T04:24:33.257Z,10.50
2022-10-26T04:27:01.190Z,9.40
2022-10-26T04:29:29.043Z,7.00
2022-10-26T04:31:56.707Z,7.80
2022-10-26T04:34:24.372Z,7.10
2022-10-26T04:36:51.908Z,8.20
2022-10-26T04:39:19.591Z,6.60
2022-10-26T04:41:47.351Z,5.70
2022-10-26T04:44:14.862Z,6.30
2022-10-26T04:46:42.539Z,6.00
2022-10-26T04:49:10.167Z,6.10
2022-10-26T04:51:38.303Z,5.70
2022-10-26T04:54:06.098Z,5.70
2022-10-26T04:56:34.388Z,6.20
2022-10-26T04:59:02.321Z,6.30
2022-10-26T05:01:31.927Z,5.60
2022-10-26T05:04:00.089Z,6.30
2022-10-26T05:06:28.107Z,7.30
2022-10-26T05:08:55.719Z,7.50
2022-10-26T05:11:23.493Z,13.20
2022-10-26T05:13:51.364Z,10.30
2022-10-26T05:16:19.463Z,8.10
2022-10-26T05:18:50.459Z,7.70
2022-10-26T05:21:20.069Z,7.90
2022-10-26T05:23:54.101Z,7.50
2022-10-26T05:26:23.069Z,8.50
2022-10-26T05:28:51.755Z,8.30
2022-10-26T05:31:20.343Z,8.40
2022-10-26T05:33:51.654Z,8.20
2022-10-26T05:36:19.510Z,8.80
2022-10-26T05:38:47.731Z,9.00
2022-10-26T05:41:15.796Z,13.20
2022-10-26T05:43:43.559Z,12.10
2022-10-26T05:46:11.514Z,12.90
2022-10-26T05:48:39.405Z,12.10
2022-10-26T05:51:07.210Z,10.30
2022-10-26T05:53:35.228Z,9.80
2022-10-26T05:56:05.028Z,9.70
2022-10-26T05:58:35.155Z,9.60
2022-10-26T06:01:32.726Z,9.30
2022-10-26T06:04:07.745Z,9.70
2022-10-26T06:06:42.204Z,8.80
2022-10-26T06:09:14.452Z,8.60
2022-10-26T06:11:43.382Z,8.40
2022-10-26T06:14:11.410Z,7.50
2022-10-26T06:16:39.483Z,7.80
2022-10-26T06:19:17.480Z,7.90
2022-10-26T06:21:49.871Z,7.20
2022-10-26T06:24:27.002Z,7.10
2022-10-26T06:26:58.073Z,7.50
2022-10-26T06:29:36.693Z,8.00
2022-10-26T06:32:05.074Z,8.10
2022-10-26T06:34:34.987Z,7.40
2022-10-26T06:37:04.082Z,7.40
2022-10-26T06:39:35.996Z,6.00
2022-10-26T06:42:04.425Z,5.20
2022-10-26T06:44:33.568Z,4.90
2022-10-26T06:47:23.435Z,4.90
2022-10-26T06:50:15.486Z,5.30
2022-10-26T06:52:46.881Z,5.30
2022-10-26T06:55:15.568Z,5.30
2022-10-26T06:57:44.027Z,24.10
2022-10-26T07:00:20.524Z,18.90
2022-10-26T07:02:49.886Z,21.60
2022-10-26T07:05:18.203Z,48.30
2022-10-26T07:07:47.670Z,32.10
2022-10-26T07:10:15.997Z,32.40
2022-10-26T07:12:43.946Z,27.70
2022-10-26T07:15:12.519Z,18.90
2022-10-26T07:17:44.845Z,13.80
2022-10-26T07:20:13.281Z,14.00
2022-10-26T07:22:42.896Z,13.70
2022-10-26T07:25:12.390Z,11.50
2022-10-26T07:27:40.148Z,13.90
2022-10-26T07:30:08.117Z,10.00
2022-10-26T07:32:35.885Z,10.60
2022-10-26T07:35:03.880Z,8.90
2022-10-26T07:37:31.616Z,8.50
2022-10-26T07:40:04.013Z,8.40
2022-10-26T07:42:36.690Z,8.40
2022-10-26T07:45:04.763Z,8.10
2022-10-26T07:47:32.641Z,8.50
2022-10-26T07:50:00.581Z,8.50
2022-10-26T07:52:28.845Z,8.20
2022-10-26T07:54:56.615Z,8.30
2022-10-26T07:57:24.379Z,8.20
2022-10-26T07:59:52.032Z,7.90
2022-10-26T08:02:19.994Z,7.60
2022-10-26T08:04:47.558Z,7.70
2022-10-26T08:07:15.219Z,7.60
2022-10-26T08:09:45.236Z,7.70
2022-10-26T08:12:16.620Z,7.40
2022-10-26T08:14:44.851Z,7.80
2022-10-26T08:17:12.594Z,7.00
2022-10-26T08:19:40.957Z,7.20
2022-10-26T08:22:10.288Z,6.90
2022-10-26T08:24:38.072Z,6.90
2022-10-26T08:27:06.753Z,6.80
2022-10-26T08:29:34.616Z,6.90
2022-10-26T08:32:02.500Z,6.40
2022-10-26T08:34:30.216Z,6.60
2022-10-26T08:36:58.013Z,6.40
2022-10-26T08:39:28.646Z,6.10
2022-10-26T08:41:58.758Z,5.60
2022-10-26T08:44:31.014Z,5.20
2022-10-26T08:47:01.199Z,4.70
2022-10-26T08:49:31.471Z,5.30
2022-10-26T08:52:01.588Z,4.80
2022-10-26T08:54:40.104Z,5.00
2022-10-26T08:57:34.136Z,4.60
2022-10-26T09:00:04.515Z,4.60
2022-10-26T09:02:34.321Z,3.90
2022-10-26T09:05:02.494Z,4.30
2022-10-26T09:07:45.491Z,4.00
2022-10-26T09:10:31.930Z,4.30
2022-10-26T09:13:08.970Z,3.80
2022-10-26T09:15:52.386Z,4.60
2022-10-26T09:18:31.967Z,3.60
2022-10-26T09:21:05.774Z,3.80
2022-10-26T09:23:44.523Z,3.50
2022-10-26T09:26:14.820Z,3.90
2022-10-26T09:28:45.046Z,3.50
2022-10-26T09:31:15.473Z,3.80
2022-10-26T09:33:43.126Z,3.60
2022-10-26T09:36:18.985Z,3.50
2022-10-26T09:38:46.947Z,4.00
2022-10-26T09:41:17.562Z,3.40
2022-10-26T09:43:50.674Z,3.90
2022-10-26T09:46:23.243Z,3.40
2022-10-26T09:48:56.321Z,3.70
2022-10-26T09:51:24.203Z,3.50
2022-10-26T09:53:52.270Z,3.30
2022-10-26T09:56:20.754Z,3.20
2022-10-26T09:59:07.355Z,3.30
2022-10-26T10:01:38.670Z,3.50
2022-10-26T10:04:13.428Z,3.30
2022-10-26T10:06:41.394Z,3.30
2022-10-26T10:09:12.655Z,3.40
2022-10-26T10:11:44.868Z,3.50
2022-10-26T10:14:17.776Z,3.50
2022-10-26T10:16:53.449Z,3.50
2022-10-26T10:19:22.550Z,3.50
2022-10-26T10:21:51.224Z,3.40
2022-10-26T10:24:25.234Z,3.60
2022-10-26T10:27:16.344Z,3.80
2022-10-26T10:29:46.054Z,3.70
2022-10-26T10:32:15.888Z,3.90
2022-10-26T10:34:44.043Z,3.90
2022-10-26T10:37:30.753Z,4.00
2022-10-26T10:42:28.527Z,4.40
2022-10-26T10:44:57.466Z,3.60
2022-10-26T10:47:32.903Z,3.60
2022-10-26T10:50:02.779Z,3.30
2022-10-26T10:52:35.653Z,3.30
2022-10-26T10:55:09.873Z,2.70
2022-10-26T10:57:46.985Z,3.20
2022-10-26T11:00:15.475Z,3.00
2022-10-26T11:02:49.274Z,2.70
2022-10-26T11:05:29.622Z,2.60
2022-10-26T11:07:57.264Z,3.30
2022-10-26T11:10:27.789Z,2.90
2022-10-26T11:12:58.272Z,2.60
2022-10-26T11:15:28.327Z,2.70
2022-10-26T11:18:07.592Z,2.60
2022-10-26T11:20:44.943Z,2.40
2022-10-26T11:23:13.334Z,2.20
2022-10-26T11:25:44.067Z,2.10
2022-10-26T11:28:41.326Z,2.00
2022-10-26T11:31:13.796Z,2.40
2022-10-26T11:33:44.652Z,2.20
2022-10-26T11:36:17.363Z,2.50
2022-10-26T11:39:16.747Z,2.50
2022-10-26T11:44:17.055Z,1.90
2022-10-26T11:46:48.130Z,1.70
2022-10-26T11:49:19.938Z,1.80
2022-10-26T11:52:02.364Z,1.80
2022-10-26T11:54:34.017Z,2.30
2022-10-26T11:57:04.086Z,2.50
2022-10-26T11:59:33.842Z,2.10
2022-10-26T12:02:03.610Z,1.80
2022-10-26T12:04:33.555Z,1.70
2022-10-26T12:07:02.665Z,1.90
2022-10-26T12:09:34.863Z,1.70
2022-10-26T12:12:13.145Z,2.00
2022-10-26T12:14:56.121Z,2.30
2022-10-26T12:17:31.003Z,2.00
2022-10-26T12:20:08.029Z,2.10
2022-10-26T12:22:39.944Z,2.00
2022-10-26T12:25:15.150Z,1.90
2022-10-26T12:27:43.183Z,1.70
2022-10-26T12:30:15.924Z,1.90
2022-10-26T12:32:44.010Z,2.20
2022-10-26T12:35:31.859Z,1.80
2022-10-26T12:38:00.211Z,2.10
2022-10-26T12:40:30.838Z,2.00
2022-10-26T12:43:18.575Z,2.20
2022-10-26T12:45:47.714Z,1.80
2022-10-26T12:48:39.292Z,2.20
2022-10-26T12:51:21.851Z,2.40
2022-10-26T12:54:10.153Z,2.30
2022-10-26T12:56:37.758Z,2.30
2022-10-26T12:59:05.569Z,1.90
2022-10-26T13:01:41.298Z,2.30
2022-10-26T13:04:15.233Z,2.10
2022-10-26T13:07:02.449Z,1.80
2022-10-26T13:09:33.135Z,2.00
2022-10-26T13:12:02.702Z,2.20
2022-10-26T13:14:36.203Z,2.00
2022-10-26T13:17:05.697Z,2.00
2022-10-26T13:19:42.671Z,2.20
2022-10-26T13:22:15.501Z,2.40
2022-10-26T13:24:49.044Z,2.50
2022-10-26T13:27:16.717Z,2.60
2022-10-26T13:30:03.276Z,2.40
2022-10-26T13:32:40.911Z,2.10
2022-10-26T13:35:15.297Z,2.20
2022-10-26T13:37:47.076Z,2.00
2022-10-26T13:40:18.407Z,2.10
2022-10-26T13:42:47.436Z,2.10
2022-10-26T13:45:23.551Z,1.80
2022-10-26T13:47:54.378Z,1.80
2022-10-26T13:50:28.850Z,2.00
2022-10-26T13:53:01.521Z,1.70
2022-10-26T13:55:34.099Z,2.10
2022-10-26T13:58:16.990Z,1.60
2022-10-26T14:01:23.881Z,1.70
2022-10-26T14:03:52.121Z,1.70
2022-10-26T14:06:21.002Z,1.60
2022-10-26T14:08:50.569Z,1.70
2022-10-26T14:11:20.482Z,1.80
2022-10-26T14:13:49.911Z,1.90
2022-10-26T14:16:21.765Z,1.50
2022-10-26T14:18:49.601Z,1.80
2022-10-26T14:21:20.341Z,1.80
2022-10-26T14:23:56.264Z,1.70
2022-10-26T14:26:28.615Z,1.80
2022-10-26T14:28:58.532Z,1.90
2022-10-26T14:31:30.248Z,1.70
2022-10-26T14:33:59.643Z,2.00
2022-10-26T14:36:37.692Z,2.00
2022-10-26T14:39:07.937Z,2.00
2022-10-26T14:41:36.614Z,1.70
2022-10-26T14:44:04.727Z,1.90
2022-10-26T14:46:34.514Z,1.90
2022-10-26T14:49:03.330Z,1.80
2022-10-26T14:51:34.662Z,1.90
2022-10-26T14:54:04.483Z,1.70
2022-10-26T14:56:34.910Z,2.10
2022-10-26T14:59:13.535Z,5.70
2022-10-26T15:02:02.163Z,5.80
2022-10-26T15:04:34.562Z,2.60
2022-10-26T15:07:07.846Z,2.60
2022-10-26T15:09:39.504Z,2.30
2022-10-26T15:12:07.571Z,2.60
2022-10-26T15:14:35.742Z,2.10
2022-10-26T15:17:04.329Z,2.20
2022-10-26T15:19:33.512Z,2.50
2022-10-26T15:22:01.802Z,4.40
2022-10-26T15:24:34.451Z,4.50
2022-10-26T15:27:12.387Z,4.70
2022-10-26T15:29:42.191Z,4.40
2022-10-26T15:32:28.489Z,4.10
2022-10-26T15:35:11.557Z,3.40
2022-10-26T15:37:39.628Z,2.80
2022-10-26T15:40:07.748Z,2.50
2022-10-26T15:42:38.300Z,2.30
2022-10-26T15:45:22.929Z,2.60
2022-10-26T15:47:55.741Z,2.80
2022-10-26T15:50:24.829Z,2.90
2022-10-26T15:52:58.941Z,2.70
2022-10-26T15:55:27.221Z,3.10
2022-10-26T15:57:54.897Z,2.90
2022-10-26T16:00:22.734Z,3.00
2022-10-26T16:02:50.705Z,3.10
2022-10-26T16:05:18.702Z,2.90
2022-10-26T16:07:48.106Z,2.60
2022-10-26T16:10:24.029Z,2.50
2022-10-26T16:12:52.608Z,2.50
2022-10-26T16:15:22.366Z,2.40
2022-10-26T16:17:51.145Z,2.50
2022-10-26T16:20:23.144Z,2.70
2022-10-26T16:22:52.207Z,2.70
2022-10-26T16:25:23.000Z,2.60
2022-10-26T16:27:51.826Z,2.60
2022-10-26T16:30:20.371Z,2.90
2022-10-26T16:32:48.565Z,2.80
2022-10-26T16:35:17.133Z,2.80
2022-10-26T16:37:45.916Z,2.90
2022-10-26T16:40:14.296Z,3.10
2022-10-26T16:42:44.209Z,2.70
2022-10-26T16:45:15.725Z,2.40
2022-10-26T16:47:45.336Z,2.70
2022-10-26T16:50:13.744Z,2.50
2022-10-26T16:52:42.224Z,2.60
2022-10-26T16:55:10.205Z,3.10
2022-10-26T16:57:38.673Z,2.90
2022-10-26T17:00:07.782Z,2.90
2022-10-26T17:02:35.992Z,2.80
2022-10-26T17:05:07.259Z,3.00
2022-10-26T17:07:35.889Z,2.80
2022-10-26T17:10:04.455Z,2.80
2022-10-26T17:12:32.359Z,3.40
2022-10-26T17:15:01.595Z,3.30
2022-10-26T17:17:29.591Z,3.30
2022-10-26T17:19:57.768Z,3.20
2022-10-26T17:22:25.526Z,3.20
2022-10-26T17:24:53.805Z,3.50
2022-10-26T17:27:23.203Z,3.60
2022-10-26T17:29:51.991Z,3.30
2022-10-26T17:32:22.626Z,3.40
2022-10-26T17:34:50.243Z,3.20
2022-10-26T17:37:18.210Z,3.60
2022-10-26T17:39:46.220Z,3.90
2022-10-26T17:42:13.882Z,4.80
2022-10-26T17:44:43.670Z,4.90
2022-10-26T17:47:12.592Z,4.30
2022-10-26T17:49:41.822Z,4.40
2022-10-26T17:52:12.105Z,4.10
2022-10-26T17:54:40.270Z,5.00
2022-10-26T17:57:08.145Z,5.00
2022-10-26T17:59:37.271Z,5.60
2022-10-26T18:02:06.646Z,5.80
2022-10-26T18:04:34.918Z,5.30
2022-10-26T18:07:02.992Z,5.70
2022-10-26T18:09:31.899Z,6.10
2022-10-26T18:12:00.372Z,6.10
2022-10-26T18:14:28.852Z,7.50
2022-10-26T18:16:57.089Z,7.70
2022-10-26T18:19:25.090Z,7.20
2022-10-26T18:21:53.156Z,7.20
2022-10-26T18:24:21.847Z,7.40
2022-10-26T18:26:49.915Z,6.10
2022-10-26T18:29:17.952Z,6.30
2022-10-26T18:31:46.359Z,5.00
2022-10-26T18:34:14.228Z,6.20
2022-10-26T18:36:41.962Z,5.30
2022-10-26T18:39:09.803Z,4.60
2022-10-26T18:41:37.621Z,5.20
2022-10-26T18:44:05.595Z,4.90
2022-10-26T18:46:39.503Z,5.60
2022-10-26T18:49:07.463Z,6.30
2022-10-26T18:51:36.041Z,5.90
2022-10-26T18:54:04.116Z,6.20
2022-10-26T18:56:32.288Z,6.10
2022-10-26T18:59:01.892Z,6.40
2022-10-26T19:01:32.898Z,7.20
2022-10-26T19:04:03.580Z,7.60
2022-10-26T19:06:33.942Z,7.10
2022-10-26T19:09:02.472Z,6.70
2022-10-26T19:11:31.533Z,7.10
2022-10-26T19:13:59.650Z,6.70
2022-10-26T19:16:46.430Z,7.20
2022-10-26T19:19:18.004Z,6.20
2022-10-26T19:21:46.584Z,8.10
2022-10-26T19:24:16.098Z,8.30
2022-10-26T19:26:44.606Z,8.00
2022-10-26T19:29:15.907Z,10.20
2022-10-26T19:31:48.403Z,10.30
2022-10-26T19:34:16.876Z,9.40
2022-10-26T19:36:47.156Z,12.80
2022-10-26T19:39:16.499Z,12.40
2022-10-26T19:41:45.830Z,8.90
2022-10-26T19:44:14.757Z,9.00
2022-10-26T19:46:43.727Z,8.90
2022-10-26T19:49:13.131Z,7.60
2022-10-26T19:51:41.564Z,7.30
2022-10-26T19:54:09.630Z,7.00
2022-10-26T19:56:37.630Z,7.60
2022-10-26T19:59:06.490Z,7.00
2022-10-26T20:01:35.179Z,6.70
2022-10-26T20:04:06.389Z,7.70
2022-10-26T20:06:35.991Z,7.20
2022-10-26T20:09:04.472Z,7.20
2022-10-26T20:11:32.679Z,7.20
2022-10-26T20:14:01.638Z,7.20
2022-10-26T20:16:30.055Z,7.10
2022-10-26T20:19:00.684Z,6.70
2022-10-26T20:21:28.558Z,7.50
2022-10-26T20:23:56.413Z,7.90
2022-10-26T20:26:27.454Z,7.90
2022-10-26T20:28:56.764Z,8.50
2022-10-26T20:31:24.622Z,8.40
2022-10-26T20:33:52.922Z,8.70
2022-10-26T20:36:21.169Z,6.50
2022-10-26T20:38:49.463Z,6.60
2022-10-26T20:41:17.518Z,7.10
2022-10-26T20:43:45.894Z,8.30
2022-10-26T20:46:23.767Z,9.60
2022-10-26T20:48:52.279Z,9.00
2022-10-26T20:51:26.324Z,10.40
2022-10-26T20:54:02.041Z,12.70
2022-10-26T20:56:30.180Z,12.10
2022-10-26T20:59:00.461Z,11.00
2022-10-26T21:01:29.213Z,14.10
2022-10-26T21:03:58.840Z,14.70
2022-10-26T21:06:27.022Z,14.40
2022-10-26T21:08:55.926Z,13.90
2022-10-26T21:11:25.495Z,13.60
2022-10-26T21:13:55.049Z,12.40
2022-10-26T21:16:23.491Z,12.30
2022-10-26T21:18:52.476Z,12.80
2022-10-26T21:21:21.366Z,14.00
2022-10-26T21:23:49.234Z,14.10
2022-10-26T21:26:18.157Z,14.40
2022-10-26T21:28:46.309Z,14.40
2022-10-26T21:31:16.205Z,15.00
2022-10-26T21:33:46.021Z,15.60
2022-10-26T21:36:14.912Z,15.70
2022-10-26T21:38:44.017Z,17.10
2022-10-26T21:41:14.095Z,30.60
2022-10-26T21:43:43.334Z,32.70
2022-10-26T21:46:11.509Z,16.30
2022-10-26T21:48:41.110Z,15.30
2022-10-26T21:51:12.038Z,19.70
2022-10-26T21:53:40.160Z,14.90
2022-10-26T21:56:12.361Z,13.80
2022-10-26T21:58:41.065Z,13.30
2022-10-26T22:01:13.336Z,13.60
2022-10-26T22:03:41.821Z,14.50
2022-10-26T22:06:10.027Z,15.20
2022-10-26T22:08:37.869Z,15.20
2022-10-26T22:11:25.967Z,15.20
2022-10-26T22:13:53.696Z,14.70
2022-10-26T22:16:22.982Z,15.30
2022-10-26T22:18:51.537Z,15.80
2022-10-26T22:21:20.117Z,16.10
2022-10-26T22:23:47.918Z,15.10
2022-10-26T22:26:19.797Z,15.00
2022-10-26T22:28:48.941Z,14.20
2022-10-26T22:31:18.547Z,13.80
2022-10-26T22:33:46.425Z,14.00
2022-10-26T22:36:15.510Z,14.20
2022-10-26T22:38:43.759Z,14.80
2022-10-26T22:41:11.873Z,14.20
2022-10-26T22:43:40.987Z,14.20
2022-10-26T22:46:13.055Z,14.90
2022-10-26T22:48:47.127Z,14.50
2022-10-26T22:51:16.429Z,13.80
2022-10-26T22:53:44.475Z,15.10
2022-10-26T22:56:13.553Z,14.30
2022-10-26T22:58:41.560Z,14.90
2022-10-26T23:01:11.761Z,15.10
2022-10-26T23:03:40.006Z,15.00
2022-10-26T23:06:09.097Z,13.80
2022-10-26T23:08:37.040Z,15.10
2022-10-26T23:11:05.910Z,14.50
2022-10-26T23:13:34.290Z,14.40
2022-10-26T23:16:06.677Z,15.30
2022-10-26T23:18:34.829Z,15.30
2022-10-26T23:21:03.105Z,14.00
2022-10-26T23:23:31.191Z,13.40
2022-10-26T23:26:09.486Z,12.70
2022-10-26T23:28:37.222Z,13.60
2022-10-26T23:31:05.422Z,12.50
2022-10-26T23:33:33.578Z,13.30
2022-10-26T23:36:01.771Z,12.60
2022-10-26T23:38:29.476Z,11.90
2022-10-26T23:40:58.470Z,11.60
2022-10-26T23:43:27.005Z,11.50
2022-10-26T23:45:56.179Z,10.80
2022-10-26T23:48:23.934Z,11.80
2022-10-26T23:50:52.082Z,11.70
2022-10-26T23:53:21.339Z,12.20
2022-10-26T23:55:49.107Z,12.80
2022-10-26T23:58:17.586Z,13.80
